Time;durP1;ratioP1;P1;durP2;ratioP2;P2;SDS_P1;SDS_P2;PMS_P1;PMS_P2;Temp;Humidity;BMP_temperature;BMP_pressure;BME280_temperature;BME280_humidity;BME280_pressure;Samples;Min_cycle;Max_cycle;Signal;HPM_P1;HPM_P2
2022/07/16 09:04:04;;;;;;;1.85;0.90;;;;;;;22.80;32.40;99497.53;5123974;27;20203;-78
2022/07/16 09:06:31;;;;;;;2.42;1.33;;;;;;;22.99;32.12;99492.53;5106821;28;20055;-77
2022/07/16 09:08:58;;;;;;;1.65;1.10;;;;;;;23.08;32.57;99518.69;5109333;28;20063;-77
2022/07/16 09:11:27;;;;;;;3.88;1.15;;;;;;;22.98;31.97;99499.16;5107564;28;20052;-77
2022/07/16 09:14:02;;;;;;;1.90;1.10;;;;;;;23.43;31.62;99497.19;5110151;27;20052;-77
2022/07/16 09:16:29;;;;;;;6.35;1.00;;;;;;;23.78;31.88;99507.78;5104753;28;20050;-77
2022/07/16 09:19:04;;;;;;;3.33;1.00;;;;;;;24.06;30.76;99516.09;5108527;27;20051;-77
2022/07/16 09:21:30;;;;;;;3.03;1.25;;;;;;;23.69;31.17;99501.03;5087781;28;20059;-78
2022/07/16 09:23:57;;;;;;;3.83;1.10;;;;;;;23.71;30.57;99500.78;5086772;28;20400;-77
2022/07/16 09:26:26;;;;;;;4.65;1.55;;;;;;;23.88;30.70;99503.44;5089524;28;20052;-77
2022/07/16 09:28:54;;;;;;;7.05;1.20;;;;;;;24.09;30.85;99496.13;5089458;28;20071;-77
2022/07/16 09:31:36;;;;;;;3.60;1.02;;;;;;;23.80;31.02;99494.50;5102410;28;20066;-78
2022/07/16 09:34:07;;;;;;;3.65;1.60;;;;;;;24.38;30.46;99516.91;5117435;27;20138;-77
2022/07/16 09:36:33;;;;;;;1.77;0.90;;;;;;;24.42;29.92;99508.88;5107848;28;20054;-78
2022/07/16 09:39:00;;;;;;;2.63;1.10;;;;;;;24.17;29.28;99512.31;5107816;28;20075;-77
2022/07/16 09:41:27;;;;;;;3.05;1.10;;;;;;;24.30;30.59;99514.63;5108090;28;20068;-77
2022/07/16 09:43:54;;;;;;;3.53;1.10;;;;;;;24.48;29.98;99499.47;5106622;28;20066;-78
2022/07/16 09:46:22;;;;;;;2.03;0.98;;;;;;;24.61;30.08;99514.00;5113804;27;20047;-78
2022/07/16 09:48:50;;;;;;;4.55;1.33;;;;;;;24.53;29.19;99499.47;5107454;28;20071;-78
2022/07/16 09:51:25;;;;;;;4.22;1.20;;;;;;;24.28;29.21;99494.59;5101474;28;20487;-78
2022/07/16 09:53:52;;;;;;;2.95;1.00;;;;;;;24.17;30.15;99502.03;5106509;28;20468;-78
2022/07/16 09:56:21;;;;;;;3.13;1.15;;;;;;;24.34;30.47;99496.31;5107690;28;20062;-77
2022/07/16 09:58:50;;;;;;;2.03;1.30;;;;;;;24.35;29.56;99489.66;5104467;28;20047;-79
2022/07/16 10:01:18;;;;;;;6.75;1.10;;;;;;;23.95;29.91;99498.53;5107834;27;20051;-78
2022/07/16 10:03:45;;;;;;;6.10;1.27;;;;;;;24.02;30.28;99501.91;5106356;28;20044;-78
2022/07/16 10:06:12;;;;;;;2.50;1.30;;;;;;;24.08;30.60;99477.81;5107539;27;20058;-77
2022/07/16 10:08:43;;;;;;;4.85;1.27;;;;;;;24.54;30.87;99503.94;5107278;28;20561;-78
2022/07/16 10:11:10;;;;;;;4.25;1.17;;;;;;;24.79;29.48;99504.38;5107246;28;20574;-79
2022/07/16 10:13:41;;;;;;;1.73;1.30;;;;;;;24.64;29.64;99488.44;5102193;28;20044;-79
2022/07/16 10:16:08;;;;;;;3.05;1.40;;;;;;;24.41;29.10;99504.41;5089168;28;20040;-78
2022/07/16 10:18:39;;;;;;;2.60;0.90;;;;;;;24.63;29.63;99512.66;5093547;28;20056;-78
2022/07/16 10:21:12;;;;;;;2.70;1.10;;;;;;;24.70;30.05;99479.84;5091246;28;20421;-78
2022/07/16 10:23:41;;;;;;;2.05;1.00;;;;;;;24.98;28.95;99500.00;5092817;28;20132;-78
2022/07/16 10:26:13;;;;;;;1.58;1.08;;;;;;;24.70;28.92;99490.97;5093473;28;20406;-79
2022/07/16 10:28:44;;;;;;;2.47;1.23;;;;;;;25.08;29.48;99505.63;5097279;28;20127;-78
2022/07/16 10:31:33;;;;;;;2.35;1.10;;;;;;;25.05;28.79;99513.66;5092024;28;20131;-79
2022/07/16 10:34:41;;;;;;;3.83;1.10;;;;;;;24.70;30.13;99490.97;5092162;28;20060;-77
2022/07/16 10:37:10;;;;;;;1.35;0.80;;;;;;;24.72;30.13;99513.81;5092689;28;20076;-80
2022/07/16 10:39:59;;;;;;;1.77;0.80;;;;;;;24.72;29.60;99480.44;5113501;28;20134;-78
2022/07/16 10:42:27;;;;;;;2.93;1.07;;;;;;;24.61;29.91;99508.44;5100316;28;20051;-78
2022/07/16 10:44:53;;;;;;;1.48;0.80;;;;;;;24.52;30.57;99506.16;5094372;28;20445;-77
2022/07/16 10:47:20;;;;;;;4.07;1.20;;;;;;;24.66;30.81;99498.22;5089270;28;20055;-77
2022/07/16 10:49:47;;;;;;;1.70;0.93;;;;;;;24.83;29.93;99495.22;5094641;28;20036;-76
2022/07/16 10:52:15;;;;;;;4.28;1.55;;;;;;;24.88;30.40;99502.75;5094058;28;20471;-76
2022/07/16 10:54:43;;;;;;;3.72;1.48;;;;;;;24.96;30.76;99498.59;5092766;28;20055;-77
2022/07/16 10:57:13;;;;;;;1.90;0.90;;;;;;;25.32;30.03;99507.09;5085479;28;20044;-76
2022/07/16 10:59:43;;;;;;;4.57;1.40;;;;;;;25.40;30.34;99504.63;5093714;28;20051;-76
2022/07/16 11:02:13;;;;;;;2.58;1.10;;;;;;;25.49;29.58;99493.78;5092305;28;20059;-79
2022/07/16 11:04:43;;;;;;;;;;;;;;;25.42;29.51;99504.34;5080661;28;20047;-78
2022/07/16 11:07:12;;;;;;;5.68;2.05;;;;;;;25.54;29.73;99493.78;5089842;28;19927;-76
2022/07/16 11:09:40;;;;;;;1.67;1.08;;;;;;;25.85;29.26;99498.53;5098864;28;20554;-75
2022/07/16 11:12:12;;;;;;;3.08;1.10;;;;;;;25.42;29.43;99496.00;5091872;28;20491;-76
2022/07/16 11:14:39;;;;;;;4.25;1.25;;;;;;;26.05;29.76;99478.25;5092123;28;20044;-76
2022/07/16 11:17:06;;;;;;;4.45;1.00;;;;;;;26.27;29.24;99486.28;5101026;28;20044;-77
2022/07/16 11:19:37;;;;;;;2.75;1.00;;;;;;;25.87;28.92;99501.91;5092141;28;20109;-77
2022/07/16 11:22:04;;;;;;;3.72;1.08;;;;;;;26.25;28.88;99499.69;5096959;28;20039;-77
2022/07/16 11:24:31;;;;;;;2.17;0.90;;;;;;;26.22;29.32;99489.09;5094434;28;20045;-78
2022/07/16 11:26:59;;;;;;;1.70;0.75;;;;;;;26.59;29.13;99465.63;5094469;27;20078;-77
2022/07/16 11:29:28;;;;;;;2.50;0.88;;;;;;;26.77;28.83;99492.06;5092051;28;20586;-77
2022/07/16 11:31:55;;;;;;;2.15;0.90;;;;;;;26.85;28.36;99492.28;5091570;28;20051;-77
2022/07/16 11:34:23;;;;;;;1.65;0.80;;;;;;;26.96;28.00;99461.56;5091129;27;20058;-77
2022/07/16 11:36:51;;;;;;;3.20;0.90;;;;;;;27.03;28.15;99467.69;5089411;28;20117;-77
2022/07/16 11:39:19;;;;;;;1.02;0.70;;;;;;;27.03;27.85;99492.78;5091724;28;20380;-77
2022/07/16 11:41:47;;;;;;;4.78;0.85;;;;;;;26.88;27.66;99476.94;5108077;28;20054;-76
2022/07/16 11:44:15;;;;;;;3.15;0.77;;;;;;;26.94;27.90;99489.75;5097822;28;20044;-76
2022/07/16 11:46:45;;;;;;;2.65;0.85;;;;;;;26.69;27.66;99481.50;5103369;28;20051;-77
2022/07/16 11:49:13;;;;;;;1.80;1.00;;;;;;;26.56;27.30;99468.97;5095281;28;20126;-76
2022/07/16 11:51:41;;;;;;;5.03;0.95;;;;;;;26.61;27.69;99492.06;5104675;28;20416;-76
2022/07/16 11:54:08;;;;;;;7.82;1.20;;;;;;;26.73;27.41;99486.22;5090921;28;20052;-76
2022/07/16 11:56:39;;;;;;;1.90;0.90;;;;;;;26.80;27.79;99480.34;5100760;28;20040;-76
2022/07/16 11:59:18;;;;;;;5.25;1.10;;;;;;;26.82;27.20;99494.81;5091315;28;20083;-76
2022/07/16 12:01:46;;;;;;;5.07;1.10;;;;;;;26.16;27.52;99471.53;5104880;28;20482;-77
2022/07/16 12:04:13;;;;;;;3.47;1.20;;;;;;;26.39;27.87;99486.84;5092735;28;20407;-76
2022/07/16 12:06:46;;;;;;;3.00;1.08;;;;;;;26.89;26.95;99500.09;5092922;28;20498;-77
2022/07/16 12:09:12;;;;;;;1.23;0.75;;;;;;;26.94;27.50;99494.50;5092653;28;20044;-77
2022/07/16 12:11:39;;;;;;;3.28;0.93;;;;;;;26.99;25.88;99486.97;5084403;28;20036;-77
2022/07/16 12:14:05;;;;;;;4.70;0.85;;;;;;;27.13;27.34;99487.16;5092494;28;20055;-77
2022/07/16 12:16:32;;;;;;;1.35;0.70;;;;;;;27.35;27.62;99497.09;5085691;28;20044;-77
2022/07/16 12:19:05;;;;;;;5.43;2.08;;;;;;;27.35;26.66;99474.78;5089717;28;20055;-79
2022/07/16 12:21:34;;;;;;;2.30;1.27;;;;;;;27.72;26.47;99479.00;5088383;28;20047;-77
2022/07/16 12:24:01;;;;;;;4.13;0.90;;;;;;;27.78;26.71;99494.59;5087757;28;20433;-77
2022/07/16 12:26:30;;;;;;;2.97;0.90;;;;;;;26.98;26.36;99488.06;5085092;28;20310;-77
2022/07/16 12:28:57;;;;;;;2.83;1.25;;;;;;;26.82;26.99;99484.50;5092045;28;20463;-77
2022/07/16 12:31:26;;;;;;;2.30;0.80;;;;;;;26.80;26.97;99494.28;5090954;28;20044;-78
2022/07/16 12:33:53;;;;;;;;;;;;;;;26.79;27.38;99498.19;5091982;28;20127;-78
2022/07/16 12:36:28;;;;;;;2.30;1.02;;;;;;;26.80;27.81;99499.88;5086156;28;19927;-77
2022/07/16 12:38:58;;;;;;;2.47;0.82;;;;;;;27.14;27.32;99491.59;5088325;28;20105;-77
2022/07/16 12:41:27;;;;;;;1.98;0.90;;;;;;;27.20;27.87;99489.63;5086058;28;20127;-77
2022/07/16 12:43:56;;;;;;;2.05;0.73;;;;;;;27.25;27.79;99472.00;5091830;28;20040;-78
2022/07/16 12:46:25;;;;;;;1.35;0.73;;;;;;;27.22;27.68;99492.97;5092442;28;20054;-79
2022/07/16 12:48:56;;;;;;;4.40;1.02;;;;;;;27.25;26.28;99483.19;5090562;28;20101;-77
2022/07/16 12:51:27;;;;;;;3.28;1.30;;;;;;;27.10;27.40;99498.03;5092603;28;20044;-77
2022/07/16 12:53:54;;;;;;;2.55;1.08;;;;;;;27.07;27.04;99470.72;5090787;28;20127;-78
2022/07/16 12:59:06;;;;;;;1.17;1.00;;;;;;;26.77;27.15;99478.13;5088981;28;20067;-77
2022/07/16 13:01:33;;;;;;;2.63;1.10;;;;;;;27.04;27.00;99477.72;5090732;28;20075;-78
2022/07/16 13:04:00;;;;;;;1.23;1.10;;;;;;;27.31;27.10;99480.09;5090034;28;20048;-78
2022/07/16 13:06:28;;;;;;;2.53;1.20;;;;;;;27.58;27.44;99489.16;5086274;28;20067;-78
2022/07/16 13:08:56;;;;;;;2.35;1.00;;;;;;;27.71;26.77;99486.53;5084085;28;20052;-77
2022/07/16 13:11:23;;;;;;;3.15;1.17;;;;;;;27.81;26.14;99471.66;5089002;28;20052;-78
2022/07/16 13:13:51;;;;;;;2.58;1.33;;;;;;;27.98;26.41;99470.44;5089194;28;20464;-78
2022/07/16 13:16:21;;;;;;;7.25;1.35;;;;;;;28.08;26.33;99464.75;5090665;28;20062;-78
2022/07/16 13:18:50;;;;;;;2.60;1.27;;;;;;;28.00;26.19;99477.41;5090491;28;20110;-77
2022/07/16 13:21:17;;;;;;;1.43;1.00;;;;;;;28.17;26.18;99485.34;5088564;28;20041;-77
2022/07/16 13:23:46;;;;;;;6.63;1.20;;;;;;;28.08;26.84;99484.31;5089437;28;20044;-77
2022/07/16 13:26:14;;;;;;;1.80;0.80;;;;;;;27.97;27.02;99480.78;5090638;28;20048;-79
2022/07/16 13:28:40;;;;;;;3.50;1.05;;;;;;;28.06;26.13;99473.44;5090349;28;20052;-78
2022/07/16 13:31:07;;;;;;;7.25;1.90;;;;;;;28.25;26.63;99481.91;5090193;28;20491;-78
2022/07/16 13:33:34;;;;;;;2.60;1.02;;;;;;;27.98;26.44;99465.66;5088920;28;20048;-78
2022/07/16 13:36:02;;;;;;;2.13;1.10;;;;;;;27.84;25.79;99473.88;5092226;28;20047;-78
2022/07/16 13:38:28;;;;;;;1.67;1.00;;;;;;;27.89;26.29;99459.84;5090050;28;20051;-78
2022/07/16 13:40:56;;;;;;;4.03;1.00;;;;;;;28.27;26.35;99481.59;5090240;28;20058;-78
2022/07/16 13:43:23;;;;;;;8.35;1.40;;;;;;;27.94;25.61;99477.69;5089463;28;20388;-79
2022/07/16 13:45:50;;;;;;;7.38;0.98;;;;;;;27.94;25.98;99455.34;5090288;28;20055;-79
2022/07/16 13:48:18;;;;;;;3.33;0.80;;;;;;;28.40;25.82;99474.50;5090299;28;20056;-79
2022/07/16 13:50:45;;;;;;;4.43;1.13;;;;;;;28.19;26.85;99480.28;5099601;28;20040;-79
2022/07/16 13:53:12;;;;;;;6.70;1.25;;;;;;;27.85;26.46;99466.31;5093314;28;20059;-79
2022/07/16 13:55:39;;;;;;;4.53;1.48;;;;;;;27.65;26.94;99475.69;5092813;28;20459;-79
2022/07/16 13:58:17;;;;;;;1.80;0.98;;;;;;;27.67;27.35;99477.09;5092176;28;20399;-78
2022/07/16 14:00:46;;;;;;;2.42;1.13;;;;;;;27.85;26.94;99486.72;5094022;28;20056;-79
2022/07/16 14:03:13;;;;;;;2.75;1.20;;;;;;;27.95;26.58;99468.19;5093737;28;20052;-78
2022/07/16 14:05:40;;;;;;;3.83;1.13;;;;;;;28.15;26.42;99459.63;5093469;28;20040;-78
2022/07/16 14:08:07;;;;;;;2.85;0.90;;;;;;;27.86;26.54;99468.81;5093951;28;20050;-79
2022/07/16 14:10:34;;;;;;;1.30;0.82;;;;;;;28.00;27.04;99465.38;5087030;28;20051;-79
2022/07/16 14:13:01;;;;;;;7.07;1.25;;;;;;;28.08;27.61;99465.56;5092346;28;20051;-79
2022/07/16 14:15:30;;;;;;;3.67;1.13;;;;;;;28.70;26.72;99466.91;5093805;28;20082;-79
2022/07/16 14:17:58;;;;;;;4.78;1.25;;;;;;;28.46;25.69;99480.88;5093577;28;20051;-79
2022/07/16 14:20:24;;;;;;;4.82;1.15;;;;;;;28.14;27.08;99466.38;5093346;28;20140;-79
2022/07/16 14:22:52;;;;;;;2.03;1.02;;;;;;;28.14;26.69;99471.09;5092318;28;20330;-78
2022/07/16 14:25:20;;;;;;;4.45;1.27;;;;;;;28.16;26.24;99485.63;5093120;28;20103;-78
2022/07/16 14:27:46;;;;;;;7.07;1.33;;;;;;;28.05;26.42;99466.16;5091571;28;20045;-79
2022/07/16 14:30:13;;;;;;;3.42;1.30;;;;;;;28.35;26.37;99474.53;5091126;28;20048;-79
2022/07/16 14:32:42;;;;;;;6.22;1.10;;;;;;;28.29;26.03;99490.53;5092685;28;20154;-79
2022/07/16 14:35:10;;;;;;;3.63;1.30;;;;;;;27.97;26.24;99489.16;5093342;28;20099;-79
2022/07/16 14:37:37;;;;;;;3.08;1.20;;;;;;;27.75;26.42;99474.78;5093119;28;20119;-78
2022/07/16 14:40:06;;;;;;;3.05;1.10;;;;;;;27.64;27.29;99491.63;5093363;28;20052;-78
2022/07/16 14:42:33;;;;;;;2.63;1.20;;;;;;;27.93;26.98;99495.56;5098218;28;20522;-77
2022/07/16 14:44:59;;;;;;;3.53;1.38;;;;;;;28.07;26.80;99482.63;5091995;28;20040;-78
2022/07/16 14:47:26;;;;;;;1.80;1.40;;;;;;;28.39;26.43;99481.19;5092915;28;20051;-77
2022/07/16 14:49:55;;;;;;;4.03;1.40;;;;;;;28.27;26.11;99475.19;5091193;28;20059;-77
2022/07/16 14:52:21;;;;;;;3.47;1.50;;;;;;;28.57;26.37;99482.41;5092263;28;20078;-76
2022/07/16 14:54:48;;;;;;;3.03;1.20;;;;;;;27.92;25.97;99472.41;5092524;28;20800;-77
2022/07/16 14:57:14;;;;;;;2.08;1.00;;;;;;;27.68;27.17;99472.31;5093166;28;20048;-77
2022/07/16 14:59:41;;;;;;;4.78;1.08;;;;;;;27.82;26.63;99476.13;5091263;28;20048;-77
2022/07/16 15:02:08;;;;;;;6.72;1.35;;;;;;;28.03;26.19;99485.19;5094757;28;20048;-78
2022/07/16 15:04:36;;;;;;;4.38;1.20;;;;;;;28.06;26.70;99475.38;5091242;28;20056;-77
2022/07/16 15:07:04;;;;;;;3.47;1.30;;;;;;;28.46;26.57;99500.44;5090828;28;20048;-77
2022/07/16 15:09:30;;;;;;;2.35;1.02;;;;;;;28.22;26.14;99465.72;5092333;28;20070;-78
2022/07/16 15:11:57;;;;;;;3.92;1.30;;;;;;;28.06;26.21;99473.44;5092270;28;20078;-77
2022/07/16 15:14:23;;;;;;;1.98;1.17;;;;;;;28.02;25.80;99463.97;5092532;28;20048;-78
2022/07/16 15:16:50;;;;;;;1.48;0.80;;;;;;;28.15;26.09;99459.63;5092445;28;20450;-78
2022/07/16 15:19:16;;;;;;;3.70;1.17;;;;;;;28.19;26.02;99466.31;5092412;28;20055;-78
2022/07/16 15:21:43;;;;;;;1.42;1.10;;;;;;;27.80;26.88;99466.38;5095632;28;20040;-78
2022/07/16 15:24:11;;;;;;;3.85;1.40;;;;;;;27.88;26.81;99465.72;5090689;28;20048;-77
2022/07/16 15:26:38;;;;;;;7.70;1.10;;;;;;;28.06;26.03;99461.41;5092257;28;20048;-78
2022/07/16 15:29:05;;;;;;;5.18;1.48;;;;;;;28.05;25.91;99466.16;5092228;28;20044;-77
2022/07/16 15:31:32;;;;;;;1.88;0.90;;;;;;;27.72;26.81;99477.03;5089810;28;20105;-78
2022/07/16 15:33:59;;;;;;;7.60;1.65;;;;;;;27.85;26.73;99469.94;5091553;28;20059;-78
2022/07/16 15:36:25;;;;;;;6.93;1.73;;;;;;;27.82;27.04;99478.91;5092144;28;20460;-78
2022/07/16 15:38:52;;;;;;;5.35;1.20;;;;;;;27.75;26.68;99461.66;5092078;28;20048;-78
2022/07/16 15:41:21;;;;;;;3.63;1.50;;;;;;;27.72;26.97;99457.47;5097995;28;20061;-78
2022/07/16 15:43:47;;;;;;;1.17;1.00;;;;;;;27.89;26.65;99476.59;5096892;28;20044;-78
2022/07/16 15:46:14;;;;;;;8.48;1.70;;;;;;;27.51;27.36;99475.53;5090716;28;20055;-78
2022/07/16 15:48:40;;;;;;;2.90;1.15;;;;;;;27.59;27.15;99472.09;5085073;28;20051;-78
2022/07/16 15:51:07;;;;;;;2.88;1.48;;;;;;;28.15;26.48;99458.81;5091962;28;20051;-78
2022/07/16 15:53:34;;;;;;;5.07;1.33;;;;;;;28.21;26.64;99460.41;5090910;28;20047;-78
2022/07/16 15:56:00;;;;;;;2.97;1.30;;;;;;;28.34;26.38;99476.50;5091224;28;20048;-77
2022/07/16 15:58:28;;;;;;;2.47;1.27;;;;;;;28.47;26.50;99474.97;5090115;28;20079;-78
2022/07/16 16:00:55;;;;;;;6.93;1.15;;;;;;;28.09;26.23;99463.59;5091642;28;20063;-78
2022/07/16 16:03:22;;;;;;;1.60;1.10;;;;;;;28.09;26.54;99469.19;5084575;28;20102;-78
2022/07/16 16:05:49;;;;;;;2.85;1.42;;;;;;;27.89;26.50;99465.44;5091286;28;20052;-78
2022/07/16 16:08:16;;;;;;;3.60;2.33;;;;;;;27.60;26.80;99442.25;5094865;28;20043;-78
2022/07/16 16:10:45;;;;;;;8.18;1.55;;;;;;;27.90;26.89;99474.66;5091458;28;20048;-78
2022/07/16 16:13:11;;;;;;;4.43;1.48;;;;;;;27.97;27.34;99464.03;5090079;28;20079;-77
2022/07/16 16:15:39;;;;;;;2.95;1.23;;;;;;;27.73;26.90;99472.25;5091436;28;20052;-77
2022/07/16 16:18:11;;;;;;;8.40;1.40;;;;;;;27.53;27.39;99468.50;5091088;28;20052;-77
2022/07/16 16:20:37;;;;;;;2.80;1.30;;;;;;;27.82;26.99;99467.75;5089704;28;20044;-77
2022/07/16 16:23:04;;;;;;;1.52;1.05;;;;;;;27.68;27.38;99467.56;5090297;28;20528;-78
2022/07/16 16:25:30;;;;;;;3.20;1.60;;;;;;;27.54;27.12;99475.75;5091345;28;20055;-78
2022/07/16 16:27:57;;;;;;;3.13;1.40;;;;;;;27.61;27.04;99458.69;5090288;28;20067;-78
2022/07/16 16:30:23;;;;;;;4.63;1.25;;;;;;;27.87;26.87;99453.72;5089453;28;20044;-78
2022/07/16 16:32:51;;;;;;;1.27;1.10;;;;;;;28.01;26.85;99459.50;5089706;28;20040;-77
2022/07/16 16:35:18;;;;;;;4.55;1.42;;;;;;;27.62;27.12;99474.31;5091158;28;20052;-78
2022/07/16 16:37:44;;;;;;;6.13;1.20;;;;;;;27.65;26.93;99479.31;5088760;28;20040;-77
2022/07/16 16:40:13;;;;;;;2.60;1.50;;;;;;;27.21;27.54;99480.13;5090818;28;20054;-77
2022/07/16 16:42:40;;;;;;;2.60;1.50;;;;;;;27.22;27.92;99483.75;5088825;28;20522;-78
2022/07/16 16:45:07;;;;;;;2.13;1.30;;;;;;;27.22;27.69;99489.34;5089237;28;20055;-78
2022/07/16 16:47:34;;;;;;;1.85;1.38;;;;;;;27.06;27.44;99469.06;5090827;28;20048;-78
2022/07/16 16:50:01;;;;;;;4.75;1.30;;;;;;;26.89;27.58;99473.06;5090455;28;20058;-78
2022/07/16 16:52:28;;;;;;;5.78;2.00;;;;;;;27.19;27.86;99474.84;5090347;28;20044;-78
2022/07/16 16:54:54;;;;;;;3.17;1.33;;;;;;;27.47;27.90;99483.63;5090811;28;20236;-78
2022/07/16 16:57:21;;;;;;;4.15;1.30;;;;;;;27.48;27.50;99490.06;5091052;28;20149;-78
2022/07/16 16:59:47;;;;;;;4.07;1.40;;;;;;;27.12;27.85;99495.81;5088506;28;20044;-78
2022/07/16 17:02:14;;;;;;;5.68;1.60;;;;;;;26.89;28.01;99483.34;5088317;28;20137;-78
2022/07/16 17:04:41;;;;;;;3.08;1.60;;;;;;;26.65;27.88;99470.03;5090299;28;20043;-78
2022/07/16 17:07:09;;;;;;;5.03;1.52;;;;;;;26.92;28.46;99499.50;5090607;28;20343;-78
2022/07/16 17:09:35;;;;;;;5.80;1.60;;;;;;;27.11;28.27;99492.16;5090823;28;20072;-78
2022/07/16 17:12:02;;;;;;;2.85;1.50;;;;;;;27.03;28.40;99488.03;5090537;28;20518;-78
2022/07/16 17:14:29;;;;;;;3.55;1.70;;;;;;;26.79;28.08;99496.22;5090753;28;20044;-78
2022/07/16 17:16:55;;;;;;;1.73;1.20;;;;;;;26.95;27.52;99499.81;5090627;28;20052;-78
2022/07/16 17:19:22;;;;;;;1.50;1.30;;;;;;;26.76;27.52;99493.19;5090140;28;20055;-78
2022/07/16 17:21:49;;;;;;;2.10;1.40;;;;;;;26.88;27.86;99490.91;5095884;28;20414;-78
2022/07/16 17:24:17;;;;;;;4.15;1.83;;;;;;;26.74;27.82;99487.03;5090583;28;20059;-78
2022/07/16 17:26:43;;;;;;;1.70;1.40;;;;;;;26.61;27.99;99508.78;5096824;28;20046;-78
2022/07/16 17:29:10;;;;;;;3.40;1.63;;;;;;;26.59;28.33;99504.63;5103237;28;20956;-78
2022/07/16 17:31:37;;;;;;;2.88;1.60;;;;;;;26.11;29.06;99491.88;5094065;28;20050;-77
2022/07/16 17:34:04;;;;;;;3.45;1.52;;;;;;;26.03;28.91;99494.41;5093769;28;20048;-78
2022/07/16 17:36:30;;;;;;;2.72;1.30;;;;;;;26.12;28.49;99518.66;5094700;28;20056;-78
2022/07/16 17:38:57;;;;;;;2.25;1.50;;;;;;;26.03;28.97;99517.53;5094992;28;20056;-78
2022/07/16 17:41:25;;;;;;;4.35;1.60;;;;;;;25.86;28.95;99514.16;5094525;28;20079;-78
2022/07/16 17:43:52;;;;;;;6.07;1.58;;;;;;;25.86;29.05;99512.19;5098099;28;20048;-78
2022/07/16 17:46:20;;;;;;;2.35;1.33;;;;;;;25.73;29.37;99510.81;5094387;28;20048;-78
2022/07/16 17:51:31;;;;;;;6.05;1.48;;;;;;;25.56;29.91;99530.56;5092603;28;20055;-78
2022/07/16 17:53:58;;;;;;;4.10;1.30;;;;;;;25.46;30.11;99524.09;5098824;28;20063;-78
2022/07/16 17:56:26;;;;;;;2.17;1.45;;;;;;;25.32;30.74;99496.78;5094701;27;20075;-77
2022/07/16 17:58:53;;;;;;;3.85;1.17;;;;;;;25.25;30.78;99510.13;5092678;28;20564;-78
2022/07/16 18:01:20;;;;;;;3.20;1.45;;;;;;;25.34;31.31;99527.97;5094457;28;20131;-77
2022/07/16 18:03:46;;;;;;;2.67;1.30;;;;;;;24.98;31.21;99511.13;5093771;28;20086;-78
2022/07/16 18:06:13;;;;;;;4.25;2.83;;;;;;;24.81;31.52;99516.91;5096492;28;20051;-77
2022/07/16 18:08:39;;;;;;;7.22;1.70;;;;;;;24.79;31.58;99521.06;5093937;28;20044;-78
2022/07/16 18:11:07;;;;;;;3.25;1.33;;;;;;;24.74;31.92;99514.34;5094717;28;20052;-77
2022/07/16 18:13:36;;;;;;;3.35;1.30;;;;;;;24.68;32.13;99514.63;5092636;28;20044;-78
2022/07/16 18:16:04;;;;;;;2.40;1.30;;;;;;;24.60;31.98;99513.19;5094093;28;20065;-78
2022/07/16 18:18:30;;;;;;;6.20;1.33;;;;;;;24.43;32.30;99518.03;5093807;28;20056;-78
2022/07/16 18:20:57;;;;;;;2.75;1.20;;;;;;;24.41;32.58;99529.41;5089529;28;20048;-77
2022/07/16 18:23:24;;;;;;;2.08;1.20;;;;;;;24.38;32.94;99536.34;5092927;28;20059;-77
2022/07/16 18:25:51;;;;;;;5.80;1.40;;;;;;;24.26;32.89;99537.66;5098318;28;20389;-77
2022/07/16 18:28:17;;;;;;;1.85;1.23;;;;;;;23.98;32.96;99525.75;5093646;28;20074;-77
2022/07/16 18:30:45;;;;;;;2.95;1.33;;;;;;;24.06;33.29;99553.06;5092772;28;20411;-77
2022/07/16 18:33:12;;;;;;;2.20;1.45;;;;;;;23.97;33.78;99544.38;5099241;28;20380;-77
2022/07/16 18:35:39;;;;;;;2.90;1.40;;;;;;;23.86;33.79;99534.25;5106407;28;20071;-77
2022/07/16 18:38:05;;;;;;;8.45;2.05;;;;;;;23.99;34.04;99549.66;5114018;28;20048;-78
2022/07/16 18:40:32;;;;;;;4.15;1.67;;;;;;;23.87;34.21;99543.44;5094742;28;20055;-78
2022/07/16 18:42:59;;;;;;;4.43;1.65;;;;;;;23.90;34.14;99557.63;5092052;28;20131;-78
2022/07/16 18:45:26;;;;;;;3.83;1.27;;;;;;;23.97;34.22;99549.91;5093542;28;20051;-77
2022/07/16 18:47:54;;;;;;;2.40;1.50;;;;;;;23.96;34.73;99552.97;5093344;28;20056;-77
2022/07/16 18:50:20;;;;;;;2.90;1.60;;;;;;;23.87;35.63;99549.81;5093398;28;20052;-77
2022/07/16 18:52:47;;;;;;;2.63;1.33;;;;;;;23.77;36.53;99542.22;5092317;28;20044;-78
2022/07/16 18:55:14;;;;;;;1.83;1.23;;;;;;;23.72;36.76;99560.75;5095391;28;20048;-77
2022/07/16 18:57:41;;;;;;;3.50;1.45;;;;;;;23.43;37.85;99545.19;5091015;28;20051;-78
2022/07/16 19:00:09;;;;;;;4.32;1.65;;;;;;;23.27;37.71;99554.44;5092538;28;20465;-77
2022/07/16 19:02:36;;;;;;;2.90;1.25;;;;;;;23.27;38.13;99551.66;5091736;28;20102;-77
2022/07/16 19:05:04;;;;;;;5.18;1.63;;;;;;;23.09;38.25;99550.03;5093043;28;20056;-78
2022/07/16 19:07:30;;;;;;;3.85;1.58;;;;;;;23.04;38.97;99561.06;5092584;28;20406;-77
2022/07/16 19:09:57;;;;;;;4.07;1.63;;;;;;;22.81;40.37;99568.53;5097180;28;20053;-77
2022/07/16 19:12:24;;;;;;;2.53;1.20;;;;;;;22.76;40.38;99563.75;5093419;28;20647;-77
2022/07/16 19:14:53;;;;;;;5.40;1.60;;;;;;;22.50;42.04;99573.59;5092629;28;20067;-77
2022/07/16 19:17:20;;;;;;;;;;;;;;;22.09;43.89;99578.47;5091721;28;20161;-77
2022/07/16 19:19:46;;;;;;;2.50;1.60;;;;;;;22.00;43.94;99580.78;5098045;28;19920;-77
2022/07/16 19:22:14;;;;;;;3.67;1.48;;;;;;;21.62;44.78;99576.78;5091456;28;20048;-77
2022/07/16 19:24:41;;;;;;;2.42;1.42;;;;;;;21.43;45.26;99569.75;5091779;28;20058;-77
2022/07/16 19:27:07;;;;;;;1.40;1.17;;;;;;;21.22;45.34;99563.81;5092154;28;20048;-77
2022/07/16 19:29:34;;;;;;;4.65;1.45;;;;;;;21.27;46.61;99583.25;5091940;28;20510;-78
2022/07/16 19:32:02;;;;;;;3.25;1.27;;;;;;;21.22;45.60;99591.44;5091781;28;20048;-78
2022/07/16 19:34:29;;;;;;;3.13;1.33;;;;;;;21.11;45.51;99584.03;5092455;28;20048;-78
2022/07/16 19:36:56;;;;;;;4.75;1.48;;;;;;;20.88;46.52;99590.44;5091534;28;20087;-77
2022/07/16 19:39:23;;;;;;;3.95;1.70;;;;;;;20.78;48.22;99596.59;5091825;28;20059;-79
2022/07/16 19:41:50;;;;;;;1.83;1.25;;;;;;;20.80;46.74;99609.06;5092760;28;20070;-78
2022/07/16 19:44:17;;;;;;;4.40;1.40;;;;;;;20.55;47.89;99600.13;5092519;28;20074;-78
2022/07/16 19:46:43;;;;;;;4.00;1.88;;;;;;;20.43;47.61;99595.47;5090813;28;20048;-78
2022/07/16 19:49:10;;;;;;;4.22;1.40;;;;;;;20.40;48.12;99606.13;5094247;28;20043;-79
2022/07/16 19:51:36;;;;;;;3.30;1.58;;;;;;;20.44;47.80;99616.47;5091158;28;20407;-77
2022/07/16 19:54:03;;;;;;;2.95;1.70;;;;;;;20.00;49.18;99596.59;5091385;28;20070;-77
2022/07/16 19:59:15;;;;;;;2.30;1.42;;;;;;;19.93;50.19;99618.78;5069756;28;20055;-77
2022/07/16 20:01:43;;;;;;;4.15;1.40;;;;;;;19.95;49.85;99630.41;5071102;28;20139;-77
2022/07/16 20:04:10;;;;;;;6.47;1.40;;;;;;;19.68;50.40;99624.41;5095750;28;20044;-77
2022/07/16 20:06:37;;;;;;;2.63;1.00;;;;;;;19.61;51.34;99632.75;5090997;28;20162;-78
2022/07/16 20:09:04;;;;;;;2.40;1.50;;;;;;;19.33;52.94;99611.31;5091268;28;20048;-78
2022/07/16 20:11:32;;;;;;;2.97;1.50;;;;;;;19.42;53.08;99637.50;5091282;28;20511;-78
2022/07/16 20:13:58;;;;;;;3.08;1.50;;;;;;;19.34;52.80;99623.16;5090853;28;20108;-78
2022/07/16 20:16:25;;;;;;;4.45;1.58;;;;;;;19.33;53.61;99649.91;5091422;28;20048;-78
2022/07/16 20:18:52;;;;;;;5.35;2.88;;;;;;;19.38;53.12;99649.22;5096820;28;20059;-78
2022/07/16 20:21:19;;;;;;;8.32;4.03;;;;;;;19.21;53.71;99655.34;5092611;28;20097;-78
2022/07/16 20:23:45;;;;;;;6.07;2.63;;;;;;;18.97;54.55;99645.22;5088456;28;20403;-78
2022/07/16 20:26:12;;;;;;;3.78;2.30;;;;;;;19.02;55.23;99650.91;5090407;28;20541;-78
2022/07/16 20:28:40;;;;;;;3.40;2.38;;;;;;;18.99;55.69;99654.09;5091418;28;20040;-78
2022/07/16 20:31:07;;;;;;;3.05;1.35;;;;;;;18.78;56.56;99652.59;5091425;28;20058;-78
2022/07/16 20:33:35;;;;;;;3.38;1.90;;;;;;;18.80;57.47;99665.03;5091636;28;20044;-78
2022/07/16 20:36:02;;;;;;;3.38;1.80;;;;;;;18.63;57.38;99645.50;5089648;28;20487;-77
2022/07/16 20:38:29;;;;;;;3.03;1.50;;;;;;;18.75;57.08;99654.72;5090705;28;20319;-79
2022/07/16 20:40:56;;;;;;;2.22;1.70;;;;;;;18.63;58.10;99659.28;5090955;28;20049;-79
2022/07/16 20:43:22;;;;;;;3.47;1.20;;;;;;;18.67;58.22;99679.81;5089811;28;20052;-76
2022/07/16 20:45:54;;;;;;;1.50;1.40;;;;;;;18.62;58.25;99671.34;5090592;28;20079;-76
2022/07/16 20:48:20;;;;;;;3.80;1.58;;;;;;;18.53;58.59;99661.69;5090202;28;20047;-77